createdAt,value
2019-04-29T00:00:23.199Z,302
2019-04-29T00:01:25.373Z,305
2019-04-29T00:02:27.621Z,307
2019-04-29T00:03:29.941Z,306
2019-04-29T00:04:32.196Z,308
2019-04-29T00:05:34.470Z,298
2019-04-29T00:06:36.802Z,311
2019-04-29T00:07:39.080Z,307
2019-04-29T00:08:42.586Z,299
2019-04-29T00:09:43.542Z,305
2019-04-29T00:10:45.846Z,290
2019-04-29T00:11:48.102Z,298
2019-04-29T00:12:51.234Z,299
2019-04-29T00:13:52.635Z,291
2019-04-29T00:14:54.934Z,299
2019-04-29T00:15:57.309Z,298
2019-04-29T00:16:59.464Z,290
2019-04-29T00:18:01.749Z,289
2019-04-29T00:19:04.150Z,298
2019-04-29T00:20:06.423Z,288
2019-04-29T00:21:08.645Z,285
2019-04-29T00:22:10.945Z,267
2019-04-29T00:23:13.231Z,281
2019-04-29T00:24:15.521Z,268
2019-04-29T00:25:17.798Z,269
2019-04-29T00:26:20.032Z,281
2019-04-29T00:27:22.379Z,277
2019-04-29T00:28:24.568Z,270
2019-04-29T00:29:26.846Z,271
2019-04-29T00:30:29.116Z,266
2019-04-29T00:31:31.389Z,270
2019-04-29T00:32:33.656Z,274
2019-04-29T00:33:36.459Z,275
2019-04-29T00:34:38.222Z,272
2019-04-29T00:35:40.478Z,275
2019-04-29T00:36:42.757Z,269
2019-04-29T00:37:45.049Z,276
2019-04-29T00:38:49.263Z,261
2019-04-29T00:39:49.575Z,255
2019-04-29T00:40:51.926Z,254
2019-04-29T00:41:54.182Z,261
2019-04-29T00:42:56.395Z,272
2019-04-29T00:43:58.683Z,237
2019-04-29T00:45:00.991Z,257
2019-04-29T00:46:03.502Z,259
2019-04-29T00:47:05.541Z,271
2019-04-29T00:48:07.795Z,271
2019-04-29T00:49:10.050Z,261
2019-04-29T00:50:12.439Z,261
2019-04-29T00:51:14.682Z,277
2019-04-29T00:52:16.947Z,267
2019-04-29T00:53:19.284Z,277
2019-04-29T00:54:21.528Z,263
2019-04-29T00:55:23.922Z,257
2019-04-29T00:56:26.402Z,270
2019-04-29T00:57:28.322Z,264
2019-04-29T00:58:30.952Z,267
2019-04-29T00:59:32.862Z,270
2019-04-29T01:00:35.162Z,262
2019-04-29T01:01:37.423Z,268
2019-04-29T01:02:39.739Z,256
2019-04-29T01:03:41.961Z,290
2019-04-29T01:04:44.234Z,262
2019-04-29T01:05:46.521Z,274
2019-04-29T01:06:48.867Z,274
2019-04-29T01:07:51.064Z,279
2019-04-29T01:08:53.352Z,265
2019-04-29T01:09:55.818Z,250
2019-04-29T01:10:57.884Z,252
2019-04-29T01:12:00.145Z,252
2019-04-29T01:13:02.425Z,243
2019-04-29T01:14:09.349Z,250
2019-04-29T01:15:07.135Z,236
2019-04-29T01:16:09.249Z,259
2019-04-29T01:17:11.605Z,246
2019-04-29T01:18:13.881Z,239
2019-04-29T01:19:16.068Z,246
2019-04-29T01:20:18.397Z,245
2019-04-29T01:21:20.786Z,247
2019-04-29T01:22:23.023Z,246
2019-04-29T01:23:25.265Z,237
2019-04-29T01:24:29.925Z,257
2019-04-29T01:25:29.856Z,236
2019-04-29T01:26:32.087Z,409
2019-04-29T01:28:36.672Z,370
2019-04-29T01:29:38.927Z,352
2019-04-29T01:30:41.189Z,320
2019-04-29T01:31:43.531Z,333
2019-04-29T01:32:45.779Z,326
2019-04-29T01:33:48.094Z,337
2019-04-29T01:34:50.387Z,318
2019-04-29T01:35:52.543Z,346
2019-04-29T01:36:54.807Z,330
2019-04-29T01:37:57.090Z,333
2019-04-29T01:38:59.454Z,335
2019-04-29T01:40:01.638Z,301
2019-04-29T01:41:03.940Z,316
2019-04-29T01:42:06.198Z,305
2019-04-29T01:43:08.478Z,317
2019-04-29T01:44:10.734Z,292
2019-04-29T01:45:13.155Z,310
2019-04-29T01:46:19.511Z,310
2019-04-29T01:47:17.644Z,307
2019-04-29T01:48:19.834Z,317
2019-04-29T01:49:22.234Z,322
2019-04-29T01:50:24.382Z,313
2019-04-29T01:51:26.650Z,316
2019-04-29T01:52:28.965Z,294
2019-04-29T01:53:31.211Z,304
2019-04-29T01:54:33.591Z,303
2019-04-29T01:55:36.173Z,294
2019-04-29T01:56:38.079Z,304
2019-04-29T01:57:40.292Z,283
2019-04-29T01:58:42.567Z,285
2019-04-29T01:59:44.945Z,264
2019-04-29T02:00:47.119Z,311
2019-04-29T02:01:50.557Z,275
2019-04-29T02:02:52.049Z,281
2019-04-29T02:03:54.089Z,284
2019-04-29T02:04:56.210Z,285
2019-04-29T02:05:58.579Z,259
2019-04-29T02:08:05.086Z,275
2019-04-29T02:09:05.351Z,270
2019-04-29T02:10:07.574Z,278
2019-04-29T02:11:09.862Z,292
2019-04-29T02:12:12.122Z,277
2019-04-29T02:13:14.666Z,282
2019-04-29T02:14:16.672Z,276
2019-04-29T02:15:19.115Z,279
2019-04-29T02:16:21.674Z,278
2019-04-29T02:17:23.494Z,261
2019-04-29T02:18:26.007Z,258
2019-04-29T02:19:28.055Z,260
2019-04-29T02:20:30.350Z,249
2019-04-29T02:21:32.665Z,271
2019-04-29T02:22:34.894Z,261
2019-04-29T02:23:37.160Z,253
2019-04-29T02:24:39.491Z,254
2019-04-29T02:25:42.196Z,267
2019-04-29T02:26:43.990Z,275
2019-04-29T02:27:46.255Z,258
2019-04-29T02:28:48.527Z,258
2019-04-29T02:29:51.090Z,261
2019-04-29T02:30:53.184Z,263
2019-04-29T02:31:55.427Z,264
2019-04-29T02:32:57.623Z,255
2019-04-29T02:33:59.915Z,258
2019-04-29T02:35:02.185Z,258
2019-04-29T02:36:04.479Z,255
2019-04-29T02:37:06.732Z,288
2019-04-29T02:38:08.997Z,258
2019-04-29T02:39:11.271Z,276
2019-04-29T02:40:13.557Z,315
2019-04-29T02:41:16.346Z,299
2019-04-29T02:42:18.088Z,286
2019-04-29T02:43:20.458Z,274
2019-04-29T02:44:22.763Z,264
2019-04-29T02:45:24.932Z,265
2019-04-29T02:46:27.190Z,255
2019-04-29T02:47:29.481Z,269
2019-04-29T02:48:31.751Z,263
2019-04-29T02:49:34.106Z,270
2019-04-29T02:50:36.444Z,260
2019-04-29T02:51:38.598Z,269
2019-04-29T02:52:40.899Z,270
2019-04-29T02:53:43.644Z,253
2019-04-29T02:54:45.419Z,261
2019-04-29T02:55:47.741Z,259
2019-04-29T02:56:49.937Z,260
2019-04-29T02:57:52.235Z,256
2019-04-29T02:58:54.475Z,260
2019-04-29T02:59:56.885Z,249
2019-04-29T03:00:59.034Z,258
2019-04-29T03:02:01.308Z,265
2019-04-29T03:03:03.574Z,262
2019-04-29T03:04:05.853Z,266
2019-04-29T03:05:08.131Z,252
2019-04-29T03:07:15.174Z,240
2019-04-29T03:08:14.953Z,216
2019-04-29T03:09:17.237Z,228
2019-04-29T03:10:19.493Z,237
2019-04-29T03:11:21.873Z,238
2019-04-29T03:12:24.023Z,234
2019-04-29T03:13:26.305Z,225
2019-04-29T03:14:28.604Z,234
2019-04-29T03:15:30.993Z,223
2019-04-29T03:16:33.177Z,231
2019-04-29T03:17:35.463Z,229
2019-04-29T03:18:37.708Z,232
2019-04-29T03:19:40.009Z,235
2019-04-29T03:20:43.012Z,239
2019-04-29T03:21:44.516Z,236
2019-04-29T03:22:46.799Z,231
2019-04-29T03:23:49.083Z,247
2019-04-29T03:24:51.559Z,249
2019-04-29T03:25:56.629Z,237
2019-04-29T03:26:55.980Z,222
2019-04-29T03:27:58.222Z,238
2019-04-29T03:29:00.459Z,237
2019-04-29T03:30:02.743Z,244
2019-04-29T03:31:05.051Z,231
2019-04-29T03:32:07.360Z,232
2019-04-29T03:33:09.612Z,206
2019-04-29T03:34:11.829Z,226
2019-04-29T03:35:14.115Z,224
2019-04-29T03:36:16.370Z,216
2019-04-29T03:37:18.702Z,232
2019-04-29T03:38:20.909Z,231
2019-04-29T03:39:23.175Z,239
2019-04-29T03:40:25.465Z,237
2019-04-29T03:41:27.765Z,231
2019-04-29T03:42:30.109Z,234
2019-04-29T03:43:32.287Z,233
2019-04-29T03:44:34.548Z,232
2019-04-29T03:45:36.829Z,227
2019-04-29T03:46:39.108Z,236
2019-04-29T03:47:41.436Z,220
2019-04-29T03:48:43.679Z,221
2019-04-29T03:49:45.934Z,228
2019-04-29T03:50:48.206Z,223
2019-04-29T03:51:50.647Z,235
2019-04-29T03:52:52.830Z,223
2019-04-29T03:53:55.046Z,224
2019-04-29T03:54:57.313Z,222
2019-04-29T03:55:59.596Z,224
2019-04-29T03:57:01.848Z,234
2019-04-29T03:58:04.116Z,233
2019-04-29T03:59:06.424Z,258
2019-04-29T04:00:08.862Z,220
2019-04-29T04:01:10.957Z,218
2019-04-29T04:02:13.197Z,224
2019-04-29T04:03:15.486Z,232
2019-04-29T04:04:23.532Z,232
2019-04-29T04:05:20.065Z,229
2019-04-29T04:06:22.289Z,237
2019-04-29T04:07:24.666Z,226
2019-04-29T04:08:26.937Z,215
2019-04-29T04:09:32.788Z,223
2019-04-29T04:10:31.424Z,220
2019-04-29T04:11:33.797Z,220
2019-04-29T04:12:35.954Z,221
2019-04-29T04:13:38.298Z,224
2019-04-29T04:14:40.532Z,215
2019-04-29T04:15:42.777Z,225
2019-04-29T04:16:45.162Z,223
2019-04-29T04:17:47.304Z,219
2019-04-29T04:18:49.607Z,216
2019-04-29T04:19:52.032Z,213
2019-04-29T04:20:54.603Z,219
2019-04-29T04:21:56.407Z,205
2019-04-29T04:22:58.697Z,219
2019-04-29T04:24:01.065Z,210
2019-04-29T04:25:03.243Z,279
2019-04-29T04:26:05.681Z,210
2019-04-29T04:27:07.764Z,221
2019-04-29T04:28:10.805Z,214
2019-04-29T04:29:12.327Z,217
2019-04-29T04:30:14.624Z,213
2019-04-29T04:31:16.867Z,213
2019-04-29T04:32:19.148Z,221
2019-04-29T04:33:21.456Z,223
2019-04-29T04:34:23.693Z,221
2019-04-29T04:35:25.968Z,225
2019-04-29T04:36:28.350Z,218
2019-04-29T04:37:30.704Z,215
2019-04-29T04:38:32.771Z,227
2019-04-29T04:39:35.054Z,228
2019-04-29T04:40:39.568Z,229
2019-04-29T04:41:39.587Z,224
2019-04-29T04:42:41.859Z,228
2019-04-29T04:43:44.169Z,231
2019-04-29T04:44:46.563Z,230
2019-04-29T04:45:48.674Z,221
2019-04-29T04:46:50.948Z,228
2019-04-29T04:47:53.303Z,229
2019-04-29T04:48:55.560Z,222
2019-04-29T04:49:57.789Z,220
2019-04-29T04:51:00.032Z,218
2019-04-29T04:52:02.305Z,221
2019-04-29T04:53:04.602Z,218
2019-04-29T04:54:07.156Z,239
2019-04-29T04:55:09.114Z,236
2019-04-29T04:56:11.397Z,228
2019-04-29T04:57:13.654Z,230
2019-04-29T04:58:15.973Z,233
2019-04-29T04:59:18.219Z,230
2019-04-29T05:00:20.519Z,213
2019-04-29T05:01:22.905Z,569
2019-04-29T05:02:25.049Z,479
2019-04-29T05:03:27.482Z,419
2019-04-29T05:04:29.685Z,348
2019-04-29T05:05:31.941Z,337
2019-04-29T05:06:34.135Z,344
2019-04-29T05:07:36.626Z,290
2019-04-29T05:08:38.750Z,347
2019-04-29T05:09:40.942Z,267
2019-04-29T05:10:43.305Z,347
2019-04-29T05:11:45.476Z,334
2019-04-29T05:12:48.011Z,255
2019-04-29T05:13:50.041Z,458
2019-04-29T05:14:52.287Z,356
2019-04-29T05:15:54.735Z,335
2019-04-29T05:16:56.831Z,280
2019-04-29T05:17:59.125Z,247
2019-04-29T05:19:01.386Z,257
2019-04-29T05:20:03.654Z,264
2019-04-29T05:21:05.929Z,276
2019-04-29T05:22:08.283Z,256
2019-04-29T05:23:10.479Z,250
2019-04-29T05:24:12.882Z,238
2019-04-29T05:25:15.017Z,231
2019-04-29T05:26:17.285Z,226
2019-04-29T05:27:19.563Z,204
2019-04-29T05:28:21.842Z,221
2019-04-29T05:29:24.102Z,215
2019-04-29T05:30:26.438Z,225
2019-04-29T05:31:28.690Z,215
2019-04-29T05:32:32.026Z,210
2019-04-29T05:33:33.220Z,227
2019-04-29T05:34:35.502Z,209
2019-04-29T05:35:37.773Z,200
2019-04-29T05:36:40.134Z,219
2019-04-29T05:37:42.307Z,210
2019-04-29T05:38:44.591Z,214
2019-04-29T05:39:46.959Z,203
2019-04-29T05:40:49.433Z,202
2019-04-29T05:41:51.454Z,207
2019-04-29T05:42:53.693Z,200
2019-04-29T05:43:56.065Z,196
2019-04-29T05:44:58.242Z,213
2019-04-29T05:46:00.480Z,213
2019-04-29T05:47:02.817Z,209
2019-04-29T05:48:05.109Z,211
2019-04-29T05:49:07.298Z,218
2019-04-29T05:50:09.574Z,207
2019-04-29T05:51:12.247Z,213
2019-04-29T05:52:14.284Z,209
2019-04-29T05:53:16.391Z,210
2019-04-29T05:54:18.672Z,199
2019-04-29T05:55:20.935Z,206
2019-04-29T05:56:23.312Z,216
2019-04-29T05:57:25.532Z,217
2019-04-29T05:58:27.781Z,201
2019-04-29T05:59:30.044Z,213
2019-04-29T06:00:32.334Z,209
2019-04-29T06:01:34.581Z,196
2019-04-29T06:02:36.857Z,226
2019-04-29T06:03:39.106Z,197
2019-04-29T06:04:41.427Z,210
2019-04-29T06:05:43.677Z,206
2019-04-29T06:06:45.934Z,192
2019-04-29T06:07:48.226Z,193
2019-04-29T06:08:50.975Z,176
2019-04-29T06:09:52.746Z,178
2019-04-29T06:10:55.020Z,201
2019-04-29T06:11:57.288Z,179
2019-04-29T06:13:04.296Z,183
2019-04-29T06:14:01.900Z,181
2019-04-29T06:15:04.127Z,174
2019-04-29T06:16:06.417Z,166
2019-04-29T06:17:08.650Z,170
2019-04-29T06:18:10.967Z,178
2019-04-29T06:19:13.228Z,164
2019-04-29T06:20:15.492Z,177
2019-04-29T06:21:17.749Z,163
2019-04-29T06:22:20.036Z,168
2019-04-29T06:23:22.305Z,178
2019-04-29T06:24:24.601Z,175
2019-04-29T06:25:26.860Z,169
2019-04-29T06:26:29.178Z,175
2019-04-29T06:27:31.400Z,174
2019-04-29T06:28:33.674Z,178
2019-04-29T06:29:35.931Z,187
2019-04-29T06:30:38.199Z,191
2019-04-29T06:31:40.708Z,188
2019-04-29T06:32:42.754Z,175
2019-04-29T06:33:45.033Z,178
2019-04-29T06:34:47.410Z,166
2019-04-29T06:35:49.586Z,161
2019-04-29T06:36:51.930Z,154
2019-04-29T06:37:54.135Z,155
2019-04-29T06:38:56.400Z,151
2019-04-29T06:39:58.726Z,154
2019-04-29T06:41:00.941Z,150
2019-04-29T06:42:03.238Z,152
2019-04-29T06:43:05.505Z,149
2019-04-29T06:44:07.788Z,163
2019-04-29T06:45:10.049Z,163
2019-04-29T06:46:12.438Z,160
2019-04-29T06:47:14.625Z,158
2019-04-29T06:48:17.839Z,150
2019-04-29T06:49:19.283Z,161
2019-04-29T06:50:21.447Z,147
2019-04-29T06:51:23.666Z,150
2019-04-29T06:52:25.972Z,157
2019-04-29T06:53:28.215Z,142
2019-04-29T06:54:30.486Z,152
2019-04-29T06:55:32.943Z,196
2019-04-29T06:56:35.228Z,190
2019-04-29T06:57:37.301Z,165
2019-04-29T06:58:39.615Z,158
2019-04-29T06:59:41.959Z,148
2019-04-29T07:00:44.307Z,155
2019-04-29T07:01:46.611Z,149
2019-04-29T07:02:48.660Z,153
2019-04-29T07:03:51.011Z,155
2019-04-29T07:04:53.326Z,147
2019-04-29T07:05:55.469Z,151
2019-04-29T07:06:57.794Z,162
2019-04-29T07:08:00.191Z,161
2019-04-29T07:09:02.434Z,159
2019-04-29T07:10:04.583Z,153
2019-04-29T07:11:07.201Z,149
2019-04-29T07:12:09.139Z,145
2019-04-29T07:13:11.447Z,157
2019-04-29T07:14:13.663Z,150
2019-04-29T07:15:15.930Z,146
2019-04-29T07:16:18.333Z,160
2019-04-29T07:17:20.586Z,154
2019-04-29T07:18:22.760Z,148
2019-04-29T07:19:25.191Z,148
2019-04-29T07:20:27.511Z,144
2019-04-29T07:21:29.666Z,133
2019-04-29T07:22:31.875Z,145
2019-04-29T07:23:34.116Z,142
2019-04-29T07:24:36.457Z,145
2019-04-29T07:25:38.865Z,146
2019-04-29T07:26:41.009Z,143
2019-04-29T07:27:43.236Z,148
2019-04-29T07:28:45.473Z,145
2019-04-29T07:29:47.780Z,148
2019-04-29T07:30:50.057Z,139
2019-04-29T07:31:52.376Z,146
2019-04-29T07:32:54.589Z,148
2019-04-29T07:33:57.039Z,141
2019-04-29T07:34:59.133Z,146
2019-04-29T07:36:01.497Z,144
2019-04-29T07:37:03.714Z,147
2019-04-29T07:38:06.046Z,146
2019-04-29T07:39:08.291Z,147
2019-04-29T07:40:10.685Z,146
2019-04-29T07:41:12.758Z,159
2019-04-29T07:42:15.090Z,151
2019-04-29T07:43:17.300Z,155
2019-04-29T07:44:19.587Z,152
2019-04-29T07:45:21.959Z,147
2019-04-29T07:46:24.202Z,144
2019-04-29T07:47:26.460Z,161
2019-04-29T07:48:28.664Z,147
2019-04-29T07:49:31.134Z,143
2019-04-29T07:50:33.215Z,142
2019-04-29T07:51:35.510Z,154
2019-04-29T07:52:37.749Z,160
2019-04-29T07:53:40.146Z,152
2019-04-29T07:54:42.296Z,156
2019-04-29T07:55:44.730Z,154
2019-04-29T07:56:46.891Z,150
2019-04-29T07:57:49.192Z,151
2019-04-29T07:58:51.418Z,153
2019-04-29T07:59:53.739Z,148
2019-04-29T08:00:56.019Z,148
2019-04-29T08:01:58.430Z,156
2019-04-29T08:03:00.486Z,147
2019-04-29T08:04:02.821Z,154
2019-04-29T08:05:05.014Z,146
2019-04-29T08:06:07.312Z,150
2019-04-29T08:07:09.664Z,155
2019-04-29T08:08:11.877Z,158
2019-04-29T08:09:14.132Z,148
2019-04-29T08:10:16.666Z,149
2019-04-29T08:11:18.778Z,146
2019-04-29T08:12:20.925Z,151
2019-04-29T08:13:23.270Z,147
2019-04-29T08:14:25.487Z,159
2019-04-29T08:15:27.755Z,149
2019-04-29T08:16:30.031Z,161
2019-04-29T08:17:32.419Z,148
2019-04-29T08:18:34.559Z,143
2019-04-29T08:19:36.944Z,160
2019-04-29T08:20:39.150Z,152
2019-04-29T08:21:41.571Z,164
2019-04-29T08:22:43.664Z,158
2019-04-29T08:23:46.016Z,159
2019-04-29T08:24:48.222Z,160
2019-04-29T08:26:52.749Z,160
2019-04-29T08:27:55.019Z,173
2019-04-29T08:28:57.346Z,162
2019-04-29T08:29:59.562Z,167
2019-04-29T08:31:01.907Z,164
2019-04-29T08:32:04.145Z,160
2019-04-29T08:33:06.391Z,161
2019-04-29T08:34:08.761Z,155
2019-04-29T08:35:10.953Z,161
2019-04-29T08:36:13.941Z,148
2019-04-29T08:37:15.729Z,149
2019-04-29T08:38:17.755Z,151
2019-04-29T08:39:20.178Z,151
2019-04-29T08:40:22.375Z,148
2019-04-29T08:41:24.686Z,150
2019-04-29T08:42:26.845Z,152
2019-04-29T08:43:29.124Z,151
2019-04-29T08:44:31.395Z,154
2019-04-29T08:45:34.179Z,157
2019-04-29T08:46:35.949Z,144
2019-04-29T08:47:38.214Z,157
2019-04-29T08:48:40.594Z,155
2019-04-29T08:49:42.782Z,161
2019-04-29T08:50:45.025Z,152
2019-04-29T08:52:49.561Z,153
2019-04-29T08:53:52.018Z,159
2019-04-29T08:54:54.169Z,155
2019-04-29T08:55:56.530Z,161
2019-04-29T08:56:58.667Z,153
2019-04-29T08:58:00.953Z,153
2019-04-29T08:59:03.202Z,154
2019-04-29T09:00:05.539Z,168
2019-04-29T09:01:07.854Z,161
2019-04-29T09:02:10.119Z,164
2019-04-29T09:03:12.290Z,158
2019-04-29T09:04:14.586Z,159
2019-04-29T09:05:16.936Z,158
2019-04-29T09:06:19.104Z,161
2019-04-29T09:07:21.453Z,158
2019-04-29T09:08:23.667Z,160
2019-04-29T09:09:26.414Z,146
2019-04-29T09:10:28.443Z,151
2019-04-29T09:11:30.488Z,166
2019-04-29T09:12:32.825Z,160
2019-04-29T09:13:35.014Z,158
2019-04-29T09:14:37.320Z,158
2019-04-29T09:15:39.560Z,198
2019-04-29T09:16:42.021Z,190
2019-04-29T09:17:44.150Z,177
2019-04-29T09:18:46.385Z,176
2019-04-29T09:19:48.658Z,168
2019-04-29T09:20:50.923Z,160
2019-04-29T09:21:53.213Z,168
2019-04-29T09:22:55.473Z,159
2019-04-29T09:23:57.772Z,159
2019-04-29T09:25:00.109Z,164
2019-04-29T09:26:02.427Z,161
2019-04-29T09:27:04.583Z,157
2019-04-29T09:28:06.987Z,157
2019-04-29T09:29:09.166Z,154
2019-04-29T09:30:11.386Z,158
2019-04-29T09:31:13.661Z,163
2019-04-29T09:32:15.943Z,151
2019-04-29T09:33:19.418Z,164
2019-04-29T09:34:20.576Z,156
2019-04-29T09:35:22.750Z,169
2019-04-29T09:36:25.011Z,163
2019-04-29T09:37:27.372Z,163
2019-04-29T09:38:29.562Z,163
2019-04-29T09:39:31.926Z,156
2019-04-29T09:40:34.162Z,160
2019-04-29T09:41:36.570Z,160
2019-04-29T09:42:38.753Z,149
2019-04-29T09:43:41.666Z,159
2019-04-29T09:44:43.277Z,153
2019-04-29T09:45:45.524Z,160
2019-04-29T09:46:48.290Z,162
2019-04-29T09:47:50.073Z,165
2019-04-29T09:48:52.361Z,160
2019-04-29T09:49:54.612Z,162
2019-04-29T09:50:56.872Z,168
2019-04-29T09:51:59.168Z,153
2019-04-29T09:53:01.435Z,156
2019-04-29T09:54:03.706Z,158
2019-04-29T09:55:06.002Z,164
2019-04-29T09:56:08.284Z,155
2019-04-29T09:57:10.525Z,161
2019-04-29T09:58:12.790Z,167
2019-04-29T09:59:15.060Z,166
2019-04-29T10:00:17.349Z,165
2019-04-29T10:01:19.634Z,161
2019-04-29T10:02:21.921Z,157
2019-04-29T10:03:24.158Z,164
2019-04-29T10:04:26.419Z,164
2019-04-29T10:05:28.838Z,161
2019-04-29T10:06:31.034Z,169
2019-04-29T10:07:33.273Z,161
2019-04-29T10:08:35.527Z,167
2019-04-29T10:09:37.784Z,157
2019-04-29T10:10:40.166Z,159
2019-04-29T10:11:42.434Z,150
2019-04-29T10:12:44.682Z,163
2019-04-29T10:13:46.976Z,167
2019-04-29T10:14:49.146Z,163
2019-04-29T10:15:51.570Z,161
2019-04-29T10:16:53.684Z,165
2019-04-29T10:17:55.990Z,158
2019-04-29T10:18:58.236Z,168
2019-04-29T10:20:00.589Z,164
2019-04-29T10:21:02.790Z,163
2019-04-29T10:22:05.119Z,170
2019-04-29T10:23:07.409Z,172
2019-04-29T10:24:09.642Z,175
2019-04-29T10:25:11.928Z,169
2019-04-29T10:26:14.160Z,170
2019-04-29T10:27:16.420Z,175
2019-04-29T10:28:18.694Z,170
2019-04-29T10:29:20.992Z,176
2019-04-29T10:30:23.257Z,175
2019-04-29T10:31:25.511Z,184
2019-04-29T10:32:27.821Z,173
2019-04-29T10:33:30.086Z,178
2019-04-29T10:34:32.340Z,182
2019-04-29T10:35:34.603Z,174
2019-04-29T10:36:36.882Z,177
2019-04-29T10:37:40.047Z,181
2019-04-29T10:38:41.506Z,182
2019-04-29T10:39:43.705Z,177
2019-04-29T10:40:45.969Z,190
2019-04-29T10:41:50.627Z,185
2019-04-29T10:42:50.629Z,197
2019-04-29T10:43:52.836Z,187
2019-04-29T10:44:55.068Z,186
2019-04-29T10:45:57.595Z,178
2019-04-29T10:46:59.611Z,179
2019-04-29T10:48:01.902Z,181
2019-04-29T10:49:04.348Z,182
2019-04-29T10:50:06.493Z,167
2019-04-29T10:51:08.782Z,171
2019-04-29T10:52:11.687Z,187
2019-04-29T10:53:13.320Z,167
2019-04-29T10:54:15.678Z,171
2019-04-29T10:55:17.885Z,168
2019-04-29T10:56:20.168Z,178
2019-04-29T10:57:22.343Z,165
2019-04-29T10:58:24.896Z,173
2019-04-29T10:59:26.904Z,180
2019-04-29T11:00:29.182Z,176
2019-04-29T11:01:31.429Z,171
2019-04-29T11:02:33.710Z,179
2019-04-29T11:03:35.990Z,174
2019-04-29T11:04:38.428Z,193
2019-04-29T11:05:40.582Z,191
2019-04-29T11:06:42.803Z,181
2019-04-29T11:07:45.150Z,180
2019-04-29T11:08:47.399Z,182
2019-04-29T11:09:49.775Z,176
2019-04-29T11:10:51.886Z,181
2019-04-29T11:11:54.240Z,172
2019-04-29T11:12:56.731Z,183
2019-04-29T11:13:58.704Z,167
2019-04-29T11:15:00.993Z,176
2019-04-29T11:16:03.239Z,170
2019-04-29T11:18:07.893Z,163
2019-04-29T11:19:10.100Z,164
2019-04-29T11:20:12.339Z,173
2019-04-29T11:21:14.627Z,174
2019-04-29T11:22:16.877Z,166
2019-04-29T11:23:19.139Z,184
2019-04-29T11:24:21.641Z,181
2019-04-29T11:25:23.696Z,166
2019-04-29T11:26:25.971Z,175
2019-04-29T11:27:28.388Z,168
2019-04-29T11:28:30.513Z,167
2019-04-29T11:29:32.809Z,165
2019-04-29T11:30:35.085Z,170
2019-04-29T11:31:37.407Z,170
2019-04-29T11:32:39.604Z,174
2019-04-29T11:33:42.009Z,175
2019-04-29T11:34:44.189Z,172
2019-04-29T11:35:46.409Z,177
2019-04-29T11:36:48.692Z,170
2019-04-29T11:37:51.016Z,171
2019-04-29T11:38:53.313Z,179
2019-04-29T11:39:55.703Z,173
2019-04-29T11:40:57.903Z,170
2019-04-29T11:42:00.142Z,169
2019-04-29T11:43:04.224Z,175
2019-04-29T11:44:04.639Z,177
2019-04-29T11:45:07.014Z,171
2019-04-29T11:46:09.166Z,179
2019-04-29T11:47:11.476Z,185
2019-04-29T11:48:13.806Z,179
2019-04-29T11:49:16.452Z,171
2019-04-29T11:50:18.351Z,178
2019-04-29T11:51:20.516Z,175
2019-04-29T11:52:22.825Z,181
2019-04-29T11:53:25.070Z,182
2019-04-29T11:54:27.368Z,175
2019-04-29T11:55:29.704Z,177
2019-04-29T11:56:31.880Z,176
2019-04-29T11:57:34.234Z,179
2019-04-29T11:58:36.510Z,192
2019-04-29T11:59:38.714Z,186
2019-04-29T12:00:41.004Z,174
2019-04-29T12:01:43.268Z,182
2019-04-29T12:02:45.587Z,179
2019-04-29T12:03:47.800Z,184
2019-04-29T12:04:50.186Z,177
2019-04-29T12:05:52.335Z,181
2019-04-29T12:06:54.908Z,179
2019-04-29T12:07:57.019Z,176
2019-04-29T12:10:01.449Z,180
2019-04-29T12:11:04.654Z,183
2019-04-29T12:12:05.979Z,182
2019-04-29T12:13:08.234Z,186
2019-04-29T12:15:12.839Z,183
2019-04-29T12:16:15.144Z,182
2019-04-29T12:17:17.348Z,189
2019-04-29T12:18:19.652Z,184
2019-04-29T12:19:21.880Z,189
2019-04-29T12:20:24.174Z,188
2019-04-29T12:21:31.304Z,189
2019-04-29T12:22:28.801Z,173
2019-04-29T12:23:31.058Z,187
2019-04-29T12:24:33.293Z,182
2019-04-29T12:25:35.881Z,186
2019-04-29T12:26:37.923Z,182
2019-04-29T12:27:40.203Z,183
2019-04-29T12:28:42.359Z,184
2019-04-29T12:29:44.672Z,183
2019-04-29T12:30:46.914Z,179
2019-04-29T12:31:49.158Z,186
2019-04-29T12:32:51.535Z,183
2019-04-29T12:33:53.719Z,192
2019-04-29T12:34:55.982Z,181
2019-04-29T12:35:58.336Z,176
2019-04-29T12:37:00.515Z,179
2019-04-29T12:38:02.809Z,175
2019-04-29T12:39:05.074Z,182
2019-04-29T12:40:07.354Z,175
2019-04-29T12:41:09.720Z,186
2019-04-29T12:42:11.895Z,186
2019-04-29T12:43:14.244Z,181
2019-04-29T12:44:16.418Z,188
2019-04-29T12:45:18.754Z,192
2019-04-29T12:46:21.115Z,191
2019-04-29T12:47:23.325Z,176
2019-04-29T12:48:25.525Z,181
2019-04-29T12:49:27.793Z,178
2019-04-29T12:50:30.187Z,180
2019-04-29T12:51:32.337Z,179
2019-04-29T12:52:34.621Z,177
2019-04-29T12:53:36.997Z,182
2019-04-29T12:54:39.230Z,179
2019-04-29T12:55:41.896Z,178
2019-04-29T12:56:44.104Z,172
2019-04-29T12:57:46.009Z,173
2019-04-29T12:58:48.304Z,181
2019-04-29T12:59:50.541Z,176
2019-04-29T13:00:52.814Z,175
2019-04-29T13:01:55.071Z,182
2019-04-29T13:02:57.339Z,177
2019-04-29T13:03:59.613Z,185
2019-04-29T13:05:02.009Z,192
2019-04-29T13:06:04.153Z,181
2019-04-29T13:07:06.667Z,178
2019-04-29T13:08:08.706Z,181
2019-04-29T13:09:10.972Z,188
2019-04-29T13:10:13.297Z,186
2019-04-29T13:11:15.519Z,181
2019-04-29T13:12:17.897Z,182
2019-04-29T13:13:20.213Z,180
2019-04-29T13:14:22.331Z,186
2019-04-29T13:15:24.628Z,186
2019-04-29T13:16:26.887Z,190
2019-04-29T13:17:29.851Z,179
2019-04-29T13:18:31.436Z,183
2019-04-29T13:19:33.694Z,179
2019-04-29T13:20:35.971Z,181
2019-04-29T13:21:38.278Z,178
2019-04-29T13:22:40.677Z,178
2019-04-29T13:23:45.694Z,183
2019-04-29T13:24:45.103Z,178
2019-04-29T13:25:47.460Z,172
2019-04-29T13:26:49.624Z,168
2019-04-29T13:27:51.910Z,177
2019-04-29T13:28:54.334Z,165
2019-04-29T13:29:56.429Z,168
2019-04-29T13:30:58.704Z,166
2019-04-29T13:32:01.039Z,174
2019-04-29T13:33:03.273Z,175
2019-04-29T13:34:05.636Z,167
2019-04-29T13:35:07.826Z,174
2019-04-29T13:36:10.101Z,170
2019-04-29T13:37:12.362Z,172
2019-04-29T13:38:14.648Z,174
2019-04-29T13:39:16.884Z,173
2019-04-29T13:40:19.240Z,173
2019-04-29T13:41:21.491Z,173
2019-04-29T13:42:23.834Z,165
2019-04-29T13:43:26.090Z,179
2019-04-29T13:44:28.277Z,175
2019-04-29T13:45:30.736Z,179
2019-04-29T13:46:32.899Z,168
2019-04-29T13:47:35.096Z,179
2019-04-29T13:48:37.447Z,166
2019-04-29T13:49:39.815Z,169
2019-04-29T13:50:41.939Z,167
2019-04-29T13:51:44.285Z,168
2019-04-29T13:52:46.597Z,169
2019-04-29T13:53:48.779Z,171
2019-04-29T13:54:50.986Z,166
2019-04-29T13:55:57.702Z,178
2019-04-29T13:56:55.598Z,170
2019-04-29T13:57:57.810Z,171
2019-04-29T13:59:03.149Z,180
2019-04-29T14:00:02.398Z,171
2019-04-29T14:01:04.685Z,161
2019-04-29T14:02:06.958Z,169
2019-04-29T14:03:09.174Z,168
2019-04-29T14:04:11.450Z,172
2019-04-29T14:05:13.786Z,175
2019-04-29T14:06:16.086Z,182
2019-04-29T14:07:18.480Z,178
2019-04-29T14:08:20.730Z,179
2019-04-29T14:09:22.806Z,177
2019-04-29T14:10:25.080Z,180
2019-04-29T14:11:27.392Z,179
2019-04-29T14:12:29.637Z,186
2019-04-29T14:13:31.981Z,184
2019-04-29T14:14:34.251Z,185
2019-04-29T14:15:36.527Z,181
2019-04-29T14:16:38.712Z,185
2019-04-29T14:17:41.127Z,175
2019-04-29T14:18:43.514Z,183
2019-04-29T14:19:45.554Z,186
2019-04-29T14:20:47.968Z,182
2019-04-29T14:21:50.091Z,197
2019-04-29T14:22:52.362Z,184
2019-04-29T14:23:54.826Z,182
2019-04-29T14:24:56.908Z,191
2019-04-29T14:27:01.734Z,185